createdAt,value
2024-01-16T00:01:35.596Z,-78
2024-01-16T00:04:03.720Z,-78
2024-01-16T00:06:31.790Z,-78
2024-01-16T00:08:59.831Z,-78
2024-01-16T00:11:27.870Z,-77
2024-01-16T00:13:55.945Z,-78
2024-01-16T00:16:23.951Z,-78
2024-01-16T00:18:52.099Z,-78
2024-01-16T00:21:20.137Z,-78
2024-01-16T00:23:48.188Z,-78
2024-01-16T00:26:23.154Z,-78
2024-01-16T00:28:51.359Z,-78
2024-01-16T00:31:19.400Z,-78
2024-01-16T00:33:47.533Z,-78
2024-01-16T00:36:16.102Z,-77
2024-01-16T00:38:44.319Z,-78
2024-01-16T00:41:12.495Z,-78
2024-01-16T00:43:40.550Z,-78
2024-01-16T00:46:08.631Z,-78
2024-01-16T00:48:36.728Z,-78
2024-01-16T00:51:05.792Z,-78
2024-01-16T00:53:33.950Z,-79
2024-01-16T00:56:01.997Z,-78
2024-01-16T00:58:30.015Z,-78
2024-01-16T01:00:58.115Z,-78
2024-01-16T01:03:26.942Z,-78
2024-01-16T01:05:55.211Z,-78
2024-01-16T01:08:23.290Z,-78
2024-01-16T01:10:51.449Z,-78
2024-01-16T01:13:19.775Z,-78
2024-01-16T01:15:46.862Z,-78
2024-01-16T01:18:15.163Z,-78
2024-01-16T01:20:43.397Z,-78
2024-01-16T01:23:12.016Z,-78
2024-01-16T01:25:40.623Z,-79
2024-01-16T01:28:08.891Z,-78
2024-01-16T01:30:37.546Z,-78
2024-01-16T01:33:05.824Z,-78
2024-01-16T01:35:34.001Z,-78
2024-01-16T01:38:02.164Z,-78
2024-01-16T01:40:30.193Z,-78
2024-01-16T01:42:58.237Z,-78
2024-01-16T01:45:26.245Z,-78
2024-01-16T01:47:54.361Z,-78
2024-01-16T01:50:22.485Z,-78
2024-01-16T01:52:51.351Z,-78
2024-01-16T01:55:19.436Z,-78
2024-01-16T01:57:47.597Z,-78
2024-01-16T02:00:18.868Z,-79
2024-01-16T02:02:47.030Z,-79
2024-01-16T02:05:15.178Z,-78
2024-01-16T02:07:43.260Z,-78
2024-01-16T02:10:11.256Z,-78
2024-01-16T02:12:39.267Z,-79
2024-01-16T02:15:07.400Z,-78
2024-01-16T02:17:35.482Z,-78
2024-01-16T02:20:03.771Z,-78
2024-01-16T02:22:34.368Z,-78
2024-01-16T02:25:02.445Z,-78
2024-01-16T02:27:30.469Z,-78
2024-01-16T02:29:58.554Z,-78
2024-01-16T02:32:26.684Z,-78
2024-01-16T02:34:54.773Z,-78
2024-01-16T02:37:23.471Z,-79
2024-01-16T02:39:51.485Z,-79
2024-01-16T02:42:19.521Z,-78
2024-01-16T02:44:47.791Z,-78
2024-01-16T02:47:16.167Z,-79
2024-01-16T02:49:44.285Z,-79
2024-01-16T02:52:12.338Z,-79
2024-01-16T02:54:40.542Z,-79
2024-01-16T02:57:08.645Z,-79
2024-01-16T02:59:36.780Z,-79
2024-01-16T03:02:05.178Z,-79
2024-01-16T03:04:33.280Z,-79
2024-01-16T03:07:01.379Z,-79
2024-01-16T03:09:29.571Z,-79
2024-01-16T03:11:58.894Z,-79
2024-01-16T03:14:27.020Z,-78
2024-01-16T03:16:55.082Z,-79
2024-01-16T03:19:23.145Z,-79
2024-01-16T03:21:51.212Z,-79
2024-01-16T03:24:19.236Z,-79
2024-01-16T03:26:47.360Z,-79
2024-01-16T03:29:15.500Z,-79
2024-01-16T03:31:43.854Z,-79
2024-01-16T03:34:12.069Z,-79
2024-01-16T03:36:40.229Z,-79
2024-01-16T03:39:10.032Z,-79
2024-01-16T03:41:38.154Z,-79
2024-01-16T03:44:06.278Z,-79
2024-01-16T03:46:34.352Z,-78
2024-01-16T03:49:02.566Z,-78
2024-01-16T03:51:31.382Z,-78
2024-01-16T03:54:00.229Z,-78
2024-01-16T03:56:28.289Z,-78
2024-01-16T03:58:56.329Z,-79
2024-01-16T04:01:38.218Z,-79
2024-01-16T04:04:07.607Z,-79
2024-01-16T04:06:36.143Z,-79
2024-01-16T04:09:04.910Z,-79
2024-01-16T04:11:33.040Z,-79
2024-01-16T04:14:01.159Z,-79
2024-01-16T04:16:29.225Z,-79
2024-01-16T04:18:57.311Z,-79
2024-01-16T04:21:25.470Z,-79
2024-01-16T04:23:53.538Z,-79
2024-01-16T04:26:22.616Z,-78
2024-01-16T04:28:50.827Z,-78
2024-01-16T04:31:20.528Z,-78
2024-01-16T04:33:48.642Z,-79
2024-01-16T04:36:16.730Z,-79
2024-01-16T04:38:44.800Z,-79
2024-01-16T04:41:12.924Z,-79
2024-01-16T04:43:41.135Z,-79
2024-01-16T04:46:09.186Z,-79
2024-01-16T04:48:37.477Z,-79
2024-01-16T04:51:05.653Z,-79
2024-01-16T04:53:39.554Z,-79
2024-01-16T04:56:07.932Z,-79
2024-01-16T04:58:36.007Z,-79
2024-01-16T05:01:04.125Z,-78
2024-01-16T05:03:32.229Z,-79
2024-01-16T05:06:00.701Z,-76
2024-01-16T05:08:29.103Z,-79
2024-01-16T05:10:57.259Z,-79
2024-01-16T05:13:25.302Z,-78
2024-01-16T05:15:53.363Z,-78
2024-01-16T05:18:21.818Z,-78
2024-01-16T05:20:50.063Z,-79
2024-01-16T05:23:19.126Z,-79
2024-01-16T05:25:47.242Z,-78
2024-01-16T05:28:15.299Z,-79
2024-01-16T05:30:44.556Z,-78
2024-01-16T05:33:12.818Z,-78
2024-01-16T05:35:41.138Z,-79
2024-01-16T05:38:09.307Z,-78
2024-01-16T05:40:37.396Z,-79
2024-01-16T05:43:05.658Z,-79
2024-01-16T05:45:33.695Z,-79
2024-01-16T05:48:02.059Z,-79
2024-01-16T05:50:31.435Z,-79
2024-01-16T05:52:59.535Z,-79
2024-01-16T05:55:27.556Z,-79
2024-01-16T05:57:55.620Z,-79
2024-01-16T06:00:24.409Z,-79
2024-01-16T06:02:52.547Z,-79
2024-01-16T06:05:20.776Z,-79
2024-01-16T06:07:48.981Z,-79
2024-01-16T06:10:17.111Z,-79
2024-01-16T06:12:45.175Z,-79
2024-01-16T06:15:13.344Z,-79
2024-01-16T06:17:41.602Z,-79
2024-01-16T06:20:10.145Z,-79
2024-01-16T06:22:38.213Z,-79
2024-01-16T06:25:05.502Z,-79
2024-01-16T06:27:33.699Z,-79
2024-01-16T06:30:01.985Z,-79
2024-01-16T06:32:30.705Z,-79
2024-01-16T06:34:58.831Z,-66
2024-01-16T06:37:26.936Z,-66
2024-01-16T06:39:55.003Z,-66
2024-01-16T06:42:23.130Z,-66
2024-01-16T06:44:51.368Z,-66
2024-01-16T06:47:19.493Z,-66
2024-01-16T06:49:48.199Z,-66
2024-01-16T06:52:16.275Z,-65
2024-01-16T06:54:44.639Z,-66
2024-01-16T06:57:12.702Z,-66
2024-01-16T06:59:40.840Z,-66
2024-01-16T07:02:09.425Z,-66
2024-01-16T07:04:37.524Z,-67
2024-01-16T07:07:05.711Z,-66
2024-01-16T07:09:33.748Z,-66
2024-01-16T07:12:01.932Z,-66
2024-01-16T07:14:30.045Z,-66
2024-01-16T07:16:58.217Z,-66
2024-01-16T07:19:26.327Z,-66
2024-01-16T07:21:54.378Z,-66
2024-01-16T07:24:22.465Z,-65
2024-01-16T07:26:50.657Z,-66
2024-01-16T07:29:19.838Z,-66
2024-01-16T07:31:48.687Z,-66
2024-01-16T07:34:21.231Z,-66
2024-01-16T07:36:49.367Z,-66
2024-01-16T07:39:17.507Z,-66
2024-01-16T07:41:45.670Z,-66
2024-01-16T07:44:13.867Z,-66
2024-01-16T07:46:42.341Z,-66
2024-01-16T07:49:10.832Z,-66
2024-01-16T07:51:38.998Z,-66
2024-01-16T07:54:11.268Z,-66
2024-01-16T07:56:39.851Z,-66
2024-01-16T07:59:07.988Z,-65
2024-01-16T08:01:36.117Z,-66
2024-01-16T08:04:05.108Z,-66
2024-01-16T08:06:33.549Z,-66
2024-01-16T08:09:01.748Z,-66
2024-01-16T08:11:31.382Z,-66
2024-01-16T08:14:00.027Z,-66
2024-01-16T08:16:28.100Z,-66
2024-01-16T08:18:56.306Z,-66
2024-01-16T08:21:24.448Z,-66
2024-01-16T08:23:52.822Z,-66
2024-01-16T08:26:21.068Z,-66
2024-01-16T08:28:49.454Z,-66
2024-01-16T08:31:19.520Z,-66
2024-01-16T08:33:50.719Z,-66
2024-01-16T08:36:20.775Z,-66
2024-01-16T08:38:48.994Z,-66
2024-01-16T08:41:17.160Z,-66
2024-01-16T08:43:45.361Z,-66
2024-01-16T08:46:16.219Z,-66
2024-01-16T08:48:44.447Z,-66
2024-01-16T08:51:15.135Z,-66
2024-01-16T08:53:44.654Z,-66
2024-01-16T08:56:13.611Z,-66
2024-01-16T08:58:42.027Z,-66
2024-01-16T09:01:11.376Z,-66
2024-01-16T09:03:39.524Z,-66
2024-01-16T09:06:07.722Z,-66
2024-01-16T09:08:35.916Z,-66
2024-01-16T09:11:04.069Z,-66
2024-01-16T09:13:32.341Z,-66
2024-01-16T09:16:00.393Z,-66
2024-01-16T09:18:28.710Z,-66
2024-01-16T09:20:58.095Z,-66
2024-01-16T09:23:26.267Z,-66
2024-01-16T09:25:55.155Z,-65
2024-01-16T09:28:23.278Z,-66
2024-01-16T09:30:51.465Z,-66
2024-01-16T09:33:19.742Z,-66
2024-01-16T09:35:47.943Z,-66
2024-01-16T09:38:16.267Z,-66
2024-01-16T09:40:44.423Z,-66
2024-01-16T09:43:12.724Z,-66
2024-01-16T09:45:40.922Z,-66
2024-01-16T09:48:10.370Z,-66
2024-01-16T09:50:38.915Z,-68
2024-01-16T09:53:07.098Z,-66
2024-01-16T09:55:35.206Z,-66
2024-01-16T09:58:04.636Z,-66
2024-01-16T10:00:33.184Z,-66
2024-01-16T10:03:02.723Z,-66
2024-01-16T10:05:32.618Z,-66
2024-01-16T10:08:01.154Z,-66
2024-01-16T10:10:38.552Z,-66
2024-01-16T10:13:15.330Z,-66
2024-01-16T10:15:43.448Z,-66
2024-01-16T10:18:25.951Z,-66
2024-01-16T10:20:54.797Z,-66
2024-01-16T10:23:34.047Z,-66
2024-01-16T10:26:08.813Z,-66
2024-01-16T10:28:37.586Z,-66
2024-01-16T10:31:10.867Z,-66
2024-01-16T10:33:40.444Z,-66
2024-01-16T10:36:12.520Z,-66
2024-01-16T10:38:42.026Z,-67
2024-01-16T10:41:18.163Z,-66
2024-01-16T10:43:46.792Z,-66
2024-01-16T10:46:17.328Z,-66
2024-01-16T10:48:48.214Z,-66
2024-01-16T10:51:17.284Z,-66
2024-01-16T10:53:48.241Z,-67
2024-01-16T10:56:16.749Z,-68
2024-01-16T10:58:45.499Z,-69
2024-01-16T11:01:17.717Z,-67
2024-01-16T11:03:50.785Z,-67
2024-01-16T11:06:20.512Z,-67
2024-01-16T11:08:51.237Z,-67
2024-01-16T11:11:19.644Z,-67
2024-01-16T11:13:48.790Z,-70
2024-01-16T11:16:17.167Z,-67
2024-01-16T11:18:45.401Z,-67
2024-01-16T11:21:18.048Z,-67
2024-01-16T11:23:48.311Z,-67
2024-01-16T11:26:26.319Z,-67
2024-01-16T11:28:57.417Z,-67
2024-01-16T11:31:33.067Z,-67
2024-01-16T11:34:02.034Z,-67
2024-01-16T11:36:50.038Z,-67
2024-01-16T11:39:22.245Z,-67
2024-01-16T11:41:58.087Z,-67
2024-01-16T11:44:48.952Z,-67
2024-01-16T11:47:25.347Z,-67
2024-01-16T11:50:09.614Z,-67
2024-01-16T11:52:43.407Z,-67
2024-01-16T11:55:30.537Z,-67
2024-01-16T11:58:10.639Z,-67
2024-01-16T12:00:41.295Z,-67
2024-01-16T12:03:11.231Z,-67
2024-01-16T12:05:39.719Z,-67
2024-01-16T12:08:07.887Z,-66
2024-01-16T12:10:48.891Z,-67
2024-01-16T12:13:17.057Z,-66
2024-01-16T12:15:45.301Z,-66
2024-01-16T12:18:19.817Z,-66
2024-01-16T12:20:55.156Z,-66
2024-01-16T12:23:24.291Z,-66
2024-01-16T12:26:02.098Z,-66
2024-01-16T12:28:33.770Z,-66
2024-01-16T12:31:04.177Z,-66
2024-01-16T12:33:32.920Z,-66
2024-01-16T12:36:06.631Z,-66
2024-01-16T12:38:36.311Z,-66
2024-01-16T12:41:09.404Z,-66
2024-01-16T12:43:38.086Z,-66
2024-01-16T12:46:07.602Z,-66
2024-01-16T12:48:36.030Z,-67
2024-01-16T12:51:06.305Z,-66
2024-01-16T12:53:38.105Z,-66
2024-01-16T12:56:06.600Z,-66
2024-01-16T12:58:43.060Z,-66
2024-01-16T13:01:38.438Z,-66
2024-01-16T13:04:08.858Z,-66
2024-01-16T13:06:37.942Z,-66
2024-01-16T13:09:11.346Z,-66
2024-01-16T13:11:56.504Z,-66
2024-01-16T13:14:25.399Z,-66
2024-01-16T13:16:56.732Z,-66
2024-01-16T13:19:26.208Z,-66
2024-01-16T13:21:54.988Z,-66
2024-01-16T13:24:25.055Z,-66
2024-01-16T13:26:53.890Z,-66
2024-01-16T13:29:22.121Z,-66
2024-01-16T13:31:55.774Z,-66
2024-01-16T13:34:26.990Z,-67
2024-01-16T13:37:14.626Z,-66
2024-01-16T13:39:44.556Z,-66
2024-01-16T13:42:12.624Z,-66
2024-01-16T13:44:40.834Z,-66
2024-01-16T13:47:12.221Z,-66
2024-01-16T13:49:43.385Z,-66
2024-01-16T13:52:11.805Z,-66
2024-01-16T13:54:41.098Z,-66
2024-01-16T13:57:10.761Z,-66
2024-01-16T13:59:41.688Z,-66
2024-01-16T14:02:10.698Z,-66
2024-01-16T14:04:39.518Z,-66
2024-01-16T14:07:12.516Z,-66
2024-01-16T14:09:44.490Z,-66
2024-01-16T14:12:13.853Z,-66
2024-01-16T14:14:43.576Z,-66
2024-01-16T14:17:11.996Z,-66
2024-01-16T14:19:40.264Z,-66
2024-01-16T14:22:08.469Z,-66
2024-01-16T14:24:38.669Z,-66
2024-01-16T14:27:08.059Z,-66
2024-01-16T14:29:38.058Z,-66
2024-01-16T14:32:06.997Z,-66
2024-01-16T14:34:35.360Z,-66
2024-01-16T14:37:03.825Z,-66
2024-01-16T14:39:32.320Z,-66
2024-01-16T14:42:00.876Z,-66
2024-01-16T14:44:29.306Z,-66
2024-01-16T14:46:57.584Z,-67
2024-01-16T14:49:25.883Z,-66
2024-01-16T14:51:54.045Z,-66
2024-01-16T14:54:22.145Z,-66
2024-01-16T14:56:50.512Z,-66
2024-01-16T14:59:19.177Z,-66
2024-01-16T15:01:47.567Z,-66
2024-01-16T15:04:15.918Z,-66
2024-01-16T15:06:44.252Z,-65
2024-01-16T15:09:13.893Z,-66
2024-01-16T15:11:44.075Z,-66
2024-01-16T15:14:18.003Z,-66
2024-01-16T15:16:46.954Z,-66
2024-01-16T15:19:15.490Z,-66
2024-01-16T15:21:43.912Z,-66
2024-01-16T15:24:17.259Z,-66
2024-01-16T15:26:45.587Z,-66
2024-01-16T15:29:14.096Z,-66
2024-01-16T15:31:42.197Z,-66
2024-01-16T15:34:12.069Z,-66
2024-01-16T15:36:41.869Z,-66
2024-01-16T15:39:09.980Z,-66
2024-01-16T15:41:38.123Z,-66
2024-01-16T15:44:11.525Z,-67
2024-01-16T15:47:00.244Z,-66
2024-01-16T15:49:28.810Z,-66
2024-01-16T15:51:57.732Z,-66
2024-01-16T15:54:25.958Z,-66
2024-01-16T15:56:55.175Z,-66
2024-01-16T15:59:23.344Z,-66
2024-01-16T16:01:52.130Z,-66
2024-01-16T16:04:20.374Z,-66
2024-01-16T16:06:48.744Z,-66
2024-01-16T16:09:17.808Z,-66
2024-01-16T16:11:46.520Z,-66
2024-01-16T16:14:15.576Z,-66
2024-01-16T16:16:49.209Z,-66
2024-01-16T16:19:17.612Z,-66
2024-01-16T16:21:49.877Z,-66
2024-01-16T16:24:19.177Z,-66
2024-01-16T16:26:47.620Z,-80
2024-01-16T16:29:15.996Z,-80
2024-01-16T16:31:44.418Z,-79
2024-01-16T16:34:15.734Z,-79
2024-01-16T16:36:44.933Z,-79
2024-01-16T16:39:14.095Z,-78
2024-01-16T16:41:42.787Z,-78
2024-01-16T16:44:11.702Z,-78
2024-01-16T16:46:39.904Z,-78
2024-01-16T16:49:08.037Z,-80
2024-01-16T16:51:42.715Z,-79
2024-01-16T16:54:11.253Z,-78
2024-01-16T16:56:39.463Z,-79
2024-01-16T16:59:08.659Z,-78
2024-01-16T17:01:39.383Z,-78
2024-01-16T17:04:08.053Z,-79
2024-01-16T17:06:36.403Z,-79
2024-01-16T17:09:07.634Z,-79
2024-01-16T17:11:35.873Z,-79
2024-01-16T17:14:04.886Z,-78
2024-01-16T17:16:33.055Z,-79
2024-01-16T17:19:01.320Z,-79
2024-01-16T17:21:29.490Z,-79
2024-01-16T17:23:58.128Z,-78
2024-01-16T17:26:27.645Z,-79
2024-01-16T17:28:56.743Z,-79
2024-01-16T17:31:24.900Z,-79
2024-01-16T17:33:53.730Z,-79
2024-01-16T17:36:22.249Z,-79
2024-01-16T17:38:56.690Z,-79
2024-01-16T17:41:27.534Z,-79
2024-01-16T17:43:56.056Z,-79
2024-01-16T17:46:24.339Z,-79
2024-01-16T17:48:52.672Z,-78
2024-01-16T17:51:21.452Z,-78
2024-01-16T17:53:49.654Z,-79
2024-01-16T17:56:17.821Z,-79
2024-01-16T17:58:46.035Z,-79
2024-01-16T18:01:16.704Z,-79
2024-01-16T18:03:48.641Z,-78
2024-01-16T18:06:18.511Z,-79
2024-01-16T18:08:47.909Z,-78
2024-01-16T18:11:16.207Z,-79
2024-01-16T18:13:44.832Z,-79
2024-01-16T18:16:14.819Z,-79
2024-01-16T18:18:43.149Z,-79
2024-01-16T18:21:13.322Z,-79
2024-01-16T18:23:42.630Z,-79
2024-01-16T18:26:12.039Z,-78
2024-01-16T18:28:41.043Z,-78
2024-01-16T18:31:10.264Z,-79
2024-01-16T18:33:39.658Z,-79
2024-01-16T18:36:08.221Z,-79
2024-01-16T18:38:36.376Z,-80
2024-01-16T18:41:05.601Z,-78
2024-01-16T18:43:33.739Z,-77
2024-01-16T18:46:01.865Z,-77
2024-01-16T18:48:30.392Z,-77
2024-01-16T18:50:59.497Z,-77
2024-01-16T18:53:28.715Z,-77
2024-01-16T18:55:56.849Z,-77
2024-01-16T18:58:24.955Z,-76
2024-01-16T19:00:57.566Z,-79
2024-01-16T19:03:26.050Z,-79
2024-01-16T19:05:54.876Z,-79
2024-01-16T19:08:25.085Z,-79
2024-01-16T19:10:53.604Z,-79
2024-01-16T19:13:25.330Z,-79
2024-01-16T19:15:54.004Z,-79
2024-01-16T19:18:23.804Z,-78
2024-01-16T19:20:53.403Z,-79
2024-01-16T19:23:22.068Z,-79
2024-01-16T19:25:50.362Z,-83
2024-01-16T19:28:18.483Z,-84
2024-01-16T19:30:46.768Z,-84
2024-01-16T19:33:15.153Z,-83
2024-01-16T19:35:45.740Z,-84
2024-01-16T19:38:14.412Z,-84
2024-01-16T19:40:42.469Z,-85
2024-01-16T19:43:10.536Z,-85
2024-01-16T19:45:38.608Z,-84
2024-01-16T19:48:14.087Z,-83
2024-01-16T19:50:44.289Z,-83
2024-01-16T19:53:12.874Z,-83
2024-01-16T19:55:41.498Z,-83
2024-01-16T19:58:11.989Z,-83
2024-01-16T20:00:41.440Z,-83
2024-01-16T20:03:11.984Z,-82
2024-01-16T20:05:43.455Z,-83
2024-01-16T20:08:12.233Z,-83
2024-01-16T20:10:41.215Z,-85
2024-01-16T20:13:09.460Z,-84
2024-01-16T20:15:37.643Z,-84
2024-01-16T20:18:09.763Z,-84
2024-01-16T20:20:39.733Z,-83
2024-01-16T20:23:09.221Z,-84
2024-01-16T20:25:37.464Z,-84
2024-01-16T20:28:06.487Z,-84
2024-01-16T20:30:37.025Z,-83
2024-01-16T20:33:05.513Z,-83
2024-01-16T20:35:33.945Z,-84
2024-01-16T20:38:02.219Z,-85
2024-01-16T20:40:30.355Z,-84
2024-01-16T20:42:58.507Z,-84
2024-01-16T20:45:26.917Z,-84
2024-01-16T20:47:56.017Z,-84
2024-01-16T20:50:24.445Z,-84
2024-01-16T20:52:52.636Z,-84
2024-01-16T20:55:21.159Z,-84
2024-01-16T20:57:51.399Z,-84
2024-01-16T21:00:20.075Z,-84
2024-01-16T21:02:48.207Z,-84
2024-01-16T21:05:16.542Z,-84
2024-01-16T21:07:45.307Z,-84
2024-01-16T21:10:13.646Z,-84
2024-01-16T21:12:42.594Z,-84
2024-01-16T21:15:10.977Z,-84
2024-01-16T21:17:39.589Z,-84
2024-01-16T21:20:08.769Z,-84
2024-01-16T21:22:37.386Z,-84
2024-01-16T21:25:07.015Z,-84
2024-01-16T21:27:38.133Z,-84
2024-01-16T21:30:09.362Z,-84
2024-01-16T21:32:38.125Z,-84
2024-01-16T21:35:07.654Z,-85
2024-01-16T21:37:35.841Z,-85
2024-01-16T21:40:06.298Z,-85
2024-01-16T21:42:35.756Z,-85
2024-01-16T21:45:04.230Z,-85
2024-01-16T21:47:32.677Z,-85
2024-01-16T21:50:06.323Z,-85
2024-01-16T21:52:35.747Z,-85
2024-01-16T21:55:04.109Z,-85
2024-01-16T21:57:34.187Z,-85
2024-01-16T22:00:04.325Z,-85
2024-01-16T22:02:33.281Z,-85
2024-01-16T22:05:02.295Z,-85
2024-01-16T22:07:30.476Z,-85
2024-01-16T22:09:59.746Z,-85
2024-01-16T22:12:28.109Z,-85
2024-01-16T22:14:57.215Z,-85
2024-01-16T22:17:30.028Z,-85
2024-01-16T22:19:58.668Z,-84
2024-01-16T22:22:27.081Z,-86
2024-01-16T22:24:55.184Z,-88
2024-01-16T22:27:23.758Z,-87
2024-01-16T22:29:52.027Z,-86
2024-01-16T22:32:22.165Z,-87
2024-01-16T22:34:50.360Z,-85
2024-01-16T22:37:18.964Z,-86
2024-01-16T22:39:47.060Z,-86
2024-01-16T22:42:15.178Z,-87
2024-01-16T22:44:45.843Z,-85
2024-01-16T22:47:16.909Z,-87
2024-01-16T22:49:45.040Z,-86
2024-01-16T22:52:13.243Z,-86
2024-01-16T22:54:41.902Z,-86
2024-01-16T22:57:10.017Z,-86
2024-01-16T22:59:38.113Z,-87
2024-01-16T23:02:07.018Z,-88
2024-01-16T23:04:39.170Z,-85
2024-01-16T23:07:08.458Z,-86
2024-01-16T23:09:36.614Z,-86
2024-01-16T23:12:05.002Z,-87
2024-01-16T23:14:34.229Z,-86
2024-01-16T23:17:03.167Z,-87
2024-01-16T23:19:31.963Z,-86
2024-01-16T23:22:00.016Z,-86
2024-01-16T23:24:29.227Z,-87
2024-01-16T23:26:57.509Z,-86
2024-01-16T23:29:25.901Z,-86
2024-01-16T23:31:54.100Z,-85
2024-01-16T23:34:22.189Z,-86
2024-01-16T23:36:50.510Z,-86
2024-01-16T23:39:19.357Z,-85
2024-01-16T23:41:47.540Z,-86
2024-01-16T23:44:15.708Z,-86
2024-01-16T23:46:44.014Z,-86
2024-01-16T23:49:12.092Z,-86
2024-01-16T23:51:40.179Z,-85
2024-01-16T23:54:08.311Z,-86
2024-01-16T23:56:36.705Z,-85
2024-01-16T23:59:04.771Z,-85
